Time;durP1;ratioP1;P1;durP2;ratioP2;P2;SDS_P1;SDS_P2;PMS_P1;PMS_P2;Temp;Humidity;BMP_temperature;BMP_pressure;BME280_temperature;BME280_humidity;BME280_pressure;Samples;Min_cycle;Max_cycle;Signal;HPM_P1;HPM_P2
2022/03/19 00:01:52;;;;;;;82.15;52.45;;;6.10;69.50;;;4.39;68.47;98058.06;4974344;28;20115;-64
2022/03/19 00:04:17;;;;;;;85.97;54.95;;;6.00;69.90;;;4.34;68.58;98060.13;4961225;28;20050;-64
2022/03/19 00:06:46;;;;;;;85.30;53.45;;;5.90;70.10;;;4.29;69.49;98058.66;4963165;28;20153;-65
2022/03/19 00:09:12;;;;;;;89.18;55.47;;;5.80;70.60;;;4.28;69.12;98063.97;4947639;28;20082;-65
2022/03/19 00:11:38;;;;;;;88.18;57.10;;;5.90;70.80;;;4.28;69.27;98056.97;4929213;28;20471;-65
2022/03/19 00:14:03;;;;;;;85.88;57.35;;;5.90;70.90;;;4.29;69.97;98063.03;4946571;28;20035;-65
2022/03/19 00:16:29;;;;;;;95.50;59.08;;;6.00;70.80;;;4.28;69.78;98058.75;4930994;28;20395;-65
2022/03/19 00:18:55;;;;;;;91.47;58.22;;;6.00;70.90;;;4.28;69.82;98062.19;4976478;28;20039;-64
2022/03/19 00:21:21;;;;;;;90.13;59.55;;;6.00;71.00;;;4.28;69.97;98058.75;4969448;28;20049;-64
2022/03/19 00:23:47;;;;;;;89.28;55.70;;;6.00;71.10;;;4.26;70.21;98052.81;4960445;28;20039;-64
2022/03/19 00:26:12;;;;;;;93.32;56.90;;;5.90;71.00;;;4.25;70.26;98056.34;4962656;28;20043;-65
2022/03/19 00:28:40;;;;;;;90.22;57.35;;;6.00;70.80;;;4.25;70.50;98045.94;4963648;28;20050;-65
2022/03/19 00:31:06;;;;;;;95.75;58.03;;;5.90;70.90;;;4.23;70.46;98037.38;4965676;28;20042;-66
2022/03/19 00:33:32;;;;;;;93.15;59.30;;;5.90;71.30;;;4.22;70.76;98051.34;4968333;28;20031;-66
2022/03/19 00:35:58;;;;;;;94.45;59.13;;;5.90;71.60;;;4.20;70.97;98054.06;4965190;28;20041;-63
2022/03/19 00:38:23;;;;;;;90.85;57.45;;;5.90;71.80;;;4.19;70.85;98041.97;4960552;28;20690;-66
2022/03/19 00:40:51;;;;;;;94.57;60.47;;;5.80;71.90;;;4.21;71.45;98040.09;4965401;28;20081;-65
2022/03/19 00:43:19;;;;;;;91.13;58.85;;;5.90;71.90;;;4.22;71.40;98031.34;4956888;28;20034;-65
2022/03/19 00:45:49;;;;;;;92.40;58.92;;;5.90;71.70;;;4.21;71.47;98034.91;4967596;28;20176;-63
2022/03/19 00:48:15;;;;;;;90.85;58.75;;;5.90;71.80;;;4.20;71.36;98038.44;4984296;28;20066;-65
2022/03/19 00:50:41;;;;;;;84.65;56.15;;;5.80;71.90;;;4.21;71.35;98034.91;4970493;28;20038;-64
2022/03/19 00:53:07;;;;;;;91.45;58.63;;;5.90;71.70;;;4.21;71.36;98031.44;4955182;28;20471;-66
2022/03/19 00:55:33;;;;;;;95.18;58.75;;;5.80;71.60;;;4.22;71.66;98031.34;4987708;28;20184;-65
2022/03/19 00:57:59;;;;;;;88.30;57.92;;;5.80;71.50;;;4.23;71.39;98033.03;4972751;28;20053;-65
2022/03/19 01:00:26;;;;;;;88.75;58.45;;;5.80;71.40;;;4.24;71.36;98023.44;4967256;28;20034;-65
2022/03/19 01:02:53;;;;;;;86.95;57.10;;;5.80;71.30;;;4.24;71.02;98024.25;4964020;28;20451;-65
2022/03/19 01:05:20;;;;;;;87.80;56.70;;;5.90;71.20;;;4.25;70.84;98015.50;4969219;28;20078;-64
2022/03/19 01:07:50;;;;;;;89.72;56.47;;;5.80;71.00;;;4.25;72.00;98020.72;4970696;28;20415;-65
2022/03/19 01:10:20;;;;;;;88.55;56.10;;;5.90;70.70;;;4.23;71.19;98022.59;4971133;28;20134;-65
2022/03/19 01:12:47;;;;;;;84.88;55.15;;;5.90;70.60;;;4.18;71.09;98019.47;4966833;28;20039;-62
2022/03/19 01:15:13;;;;;;;86.25;56.00;;;5.80;70.50;;;4.16;70.80;98016.13;4968911;28;20039;-65
2022/03/19 01:17:39;;;;;;;81.28;53.60;;;5.80;70.60;;;4.14;71.07;98014.56;4970745;28;20529;-65
2022/03/19 01:20:06;;;;;;;84.60;53.50;;;5.80;70.60;;;4.12;71.00;98009.47;4978333;28;20067;-65
2022/03/19 01:22:32;;;;;;;84.50;56.40;;;5.80;70.70;;;4.10;71.02;98010.50;4979263;28;20026;-69
2022/03/19 01:25:04;;;;;;;91.70;56.97;;;5.80;70.50;;;4.10;70.92;98011.34;4967648;28;20590;-63
2022/03/19 01:27:31;;;;;;;83.68;54.65;;;5.70;70.60;;;4.06;70.91;98009.84;4966143;28;20540;-64
2022/03/19 01:29:57;;;;;;;84.28;55.20;;;5.70;70.70;;;4.00;71.21;98000.69;4950931;28;20472;-65
2022/03/19 01:32:23;;;;;;;84.43;54.95;;;5.60;70.60;;;3.97;70.87;98000.88;4967408;28;20038;-64
2022/03/19 01:34:49;;;;;;;84.68;54.08;;;5.60;70.40;;;3.95;70.74;97996.72;4953495;28;20126;-64
2022/03/19 01:37:14;;;;;;;85.80;52.90;;;5.60;70.30;;;3.90;70.64;97999.63;4969777;28;20031;-65
2022/03/19 01:39:40;;;;;;;87.57;54.33;;;5.60;70.30;;;3.86;71.12;97997.34;4984249;28;20038;-65
2022/03/19 01:42:06;;;;;;;86.20;54.03;;;5.50;70.30;;;3.81;70.92;97999.38;4968168;28;20107;-64
2022/03/19 01:44:32;;;;;;;81.10;52.78;;;5.40;70.10;;;3.76;71.19;97999.69;4965693;28;20031;-64
2022/03/19 01:47:10;;;;;;;81.65;51.15;;;5.40;70.40;;;3.72;71.82;97995.63;4953660;28;20134;-65
2022/03/19 01:49:36;;;;;;;79.70;50.05;;;5.30;70.30;;;3.64;70.88;97985.72;4964847;28;20041;-65
2022/03/19 01:52:06;;;;;;;81.55;51.70;;;5.20;70.60;;;3.58;71.56;97987.88;4969631;28;20081;-65
2022/03/19 01:54:40;;;;;;;82.35;50.40;;;5.10;70.60;;;3.54;72.51;97986.41;4959349;28;20035;-64
2022/03/19 01:57:06;;;;;;;79.22;51.28;;;5.10;70.70;;;3.47;70.96;98004.19;4953908;28;20035;-65
2022/03/19 01:59:34;;;;;;;79.65;49.97;;;5.10;70.70;;;3.43;71.45;98004.47;4953281;28;20035;-64
2022/03/19 02:02:03;;;;;;;77.60;50.53;;;5.00;70.70;;;3.38;71.48;97996.94;4954505;28;20112;-65
2022/03/19 02:04:28;;;;;;;77.47;48.28;;;5.00;70.60;;;3.34;71.06;98000.69;4981487;28;20036;-63
2022/03/19 02:06:54;;;;;;;78.35;48.00;;;5.00;70.60;;;3.31;71.15;97996.50;4933910;28;20428;-63
2022/03/19 02:09:20;;;;;;;71.85;44.95;;;5.00;70.40;;;3.27;70.90;97987.25;4950093;28;20670;-64
2022/03/19 02:11:45;;;;;;;74.13;46.10;;;4.90;70.40;;;3.24;71.35;97984.00;4980461;28;20490;-64
2022/03/19 02:14:11;;;;;;;72.55;45.00;;;4.90;70.50;;;3.22;70.99;97984.09;4976671;28;20039;-63
2022/03/19 02:16:37;;;;;;;71.43;44.63;;;4.90;70.40;;;3.20;71.07;97982.53;4970005;28;20039;-64
2022/03/19 02:19:03;;;;;;;66.93;42.58;;;4.90;70.20;;;3.19;71.07;97986.91;4962157;28;20586;-64
2022/03/19 02:21:46;;;;;;;68.03;42.22;;;4.90;69.90;;;3.18;72.48;97980.03;4968767;28;20030;-64
2022/03/19 02:26:56;;;;;;;62.95;40.35;;;4.90;69.50;;;3.16;70.88;97965.44;4965622;28;20549;-64
2022/03/19 02:29:22;;;;;;;63.30;40.97;;;4.80;69.20;;;3.15;70.56;97958.56;4969111;28;20039;-64
2022/03/19 02:31:50;;;;;;;69.32;42.60;;;4.80;68.80;;;3.15;70.20;97954.19;4965981;28;20046;-64
2022/03/19 02:34:16;;;;;;;60.05;38.92;;;4.80;68.40;;;3.18;69.94;97948.00;4953752;28;20043;-64
2022/03/19 02:36:42;;;;;;;62.30;39.40;;;4.80;68.10;;;3.19;70.02;97939.25;4967317;28;20042;-64
2022/03/19 02:39:28;;;;;;;60.63;36.65;;;4.80;67.80;;;3.23;70.68;97940.72;4967748;28;20513;-64
2022/03/19 02:41:54;;;;;;;56.03;36.72;;;4.90;67.50;;;3.23;69.74;97938.13;4972267;28;20158;-64
2022/03/19 02:44:20;;;;;;;57.25;35.55;;;4.90;67.40;;;3.24;69.32;97935.44;4968202;28;20121;-64
2022/03/19 02:46:50;;;;;;;58.58;38.60;;;4.90;67.30;;;3.25;69.43;97933.66;4969415;28;20042;-64
2022/03/19 02:49:17;;;;;;;63.28;38.17;;;4.90;67.40;;;3.24;69.33;97934.59;4950487;28;20526;-64
2022/03/19 02:51:44;;;;;;;59.75;38.08;;;4.90;67.30;;;3.23;69.24;97940.72;4977763;28;20757;-64
2022/03/19 02:54:13;;;;;;;61.17;37.53;;;4.90;67.40;;;3.22;69.74;97941.66;4952049;28;20042;-64
2022/03/19 02:56:41;;;;;;;59.22;38.38;;;4.80;67.30;;;3.17;69.36;97938.50;4952601;28;20042;-64
2022/03/19 02:59:18;;;;;;;57.42;37.17;;;4.80;67.40;;;3.17;69.69;97933.28;4983244;28;20031;-64
2022/03/19 03:01:44;;;;;;;57.72;36.95;;;4.80;67.60;;;3.19;69.39;97939.25;4967140;28;20059;-64
2022/03/19 03:04:10;;;;;;;60.17;37.22;;;4.90;67.40;;;3.16;69.30;97935.06;4964678;28;20089;-64
2022/03/19 03:06:37;;;;;;;62.80;36.70;;;4.80;67.30;;;3.13;69.36;97930.06;4977387;28;20023;-65
2022/03/19 03:09:06;;;;;;;57.17;35.88;;;4.80;67.40;;;3.12;69.53;97938.78;4968110;28;20031;-64
2022/03/19 03:11:32;;;;;;;56.22;36.25;;;4.70;67.30;;;3.10;68.84;97939.81;4969271;28;20026;-64
2022/03/19 03:13:59;;;;;;;54.17;35.70;;;4.70;67.10;;;3.09;69.10;97939.00;4951375;28;20027;-64
2022/03/19 03:16:26;;;;;;;61.08;36.55;;;4.80;66.90;;;3.10;68.97;97934.63;4967752;28;20513;-64
2022/03/19 03:18:54;;;;;;;55.78;35.47;;;4.80;67.00;;;3.10;68.95;97939.81;4968995;28;20593;-65
2022/03/19 03:21:20;;;;;;;59.63;37.05;;;4.70;67.00;;;3.08;68.90;97938.16;4962373;28;20166;-64
2022/03/19 03:23:46;;;;;;;57.15;36.72;;;4.80;67.00;;;3.04;68.82;97936.69;4952114;28;20043;-64
2022/03/19 03:26:11;;;;;;;55.08;35.17;;;4.70;66.60;;;2.98;68.84;97931.88;4968064;28;20070;-64
2022/03/19 03:28:37;;;;;;;57.47;36.38;;;4.60;66.60;;;2.92;68.32;97934.84;4957342;28;20407;-64
2022/03/19 03:31:03;;;;;;;55.90;36.38;;;4.60;66.60;;;2.92;68.79;97931.41;4984770;28;20039;-65
2022/03/19 03:33:29;;;;;;;55.00;34.55;;;4.60;66.60;;;2.91;68.64;97935.78;4967738;28;20058;-64
2022/03/19 03:35:55;;;;;;;53.75;33.70;;;4.60;66.20;;;2.90;68.15;97935.88;4979349;28;20526;-64
2022/03/19 03:38:20;;;;;;;51.75;32.95;;;4.60;65.70;;;2.87;68.09;97936.91;4951286;28;20047;-64
2022/03/19 03:40:46;;;;;;;49.90;32.35;;;4.50;65.80;;;2.82;67.69;97936.38;4968212;28;20036;-64
2022/03/19 03:43:12;;;;;;;52.25;32.35;;;4.40;65.90;;;2.79;67.53;97940.94;4978325;28;20061;-64
2022/03/19 03:45:39;;;;;;;49.25;31.27;;;4.40;65.80;;;2.75;67.67;97935.94;4979110;28;20043;-64
2022/03/19 03:48:04;;;;;;;47.35;30.65;;;4.40;65.70;;;2.72;67.51;97935.28;4982876;28;20062;-64
2022/03/19 03:50:31;;;;;;;51.97;30.60;;;4.40;65.50;;;2.66;67.87;97930.44;4960952;28;20391;-64
2022/03/19 03:52:56;;;;;;;51.33;31.60;;;4.20;65.80;;;2.60;67.85;97926.47;4967674;28;20102;-64
2022/03/19 03:55:22;;;;;;;47.38;30.40;;;4.20;66.00;;;2.55;67.58;97922.50;4968415;28;20043;-63
2022/03/19 03:57:48;;;;;;;48.22;30.33;;;4.20;66.20;;;2.52;67.73;97922.69;4968807;28;20238;-64
2022/03/19 04:00:14;;;;;;;47.47;30.25;;;4.10;66.00;;;2.50;68.04;97921.94;4968552;28;20039;-64
2022/03/19 04:02:40;;;;;;;50.25;30.15;;;4.20;66.10;;;2.47;67.98;97921.19;4963927;28;20114;-64
2022/03/19 04:05:07;;;;;;;60.38;37.22;;;4.20;65.70;;;2.44;67.61;97923.97;4950302;28;20035;-64
2022/03/19 04:07:33;;;;;;;47.05;29.52;;;4.20;66.20;;;2.42;67.51;97919.81;4952171;28;20035;-65
2022/03/19 04:09:58;;;;;;;45.65;28.30;;;4.10;65.40;;;2.37;67.51;97919.25;4987874;28;20030;-64
2022/03/19 04:12:24;;;;;;;44.38;27.88;;;4.00;65.40;;;2.33;67.36;97913.41;4964631;28;20565;-64
2022/03/19 04:14:51;;;;;;;44.88;27.63;;;4.00;65.60;;;2.29;67.17;97913.72;4973057;28;20058;-65
2022/03/19 04:17:17;;;;;;;42.33;28.15;;;3.90;65.90;;;2.25;67.76;97915.63;4973283;28;20042;-65
2022/03/19 04:19:42;;;;;;;43.05;26.70;;;3.90;65.70;;;2.23;67.01;97917.47;4955151;28;20054;-65
2022/03/19 04:22:08;;;;;;;43.25;27.50;;;3.90;65.70;;;2.18;67.37;97909.16;4971617;28;20057;-64
2022/03/19 04:24:34;;;;;;;41.38;26.60;;;3.90;65.70;;;2.14;67.78;97912.84;4954209;28;20038;-64
2022/03/19 04:27:00;;;;;;;47.53;27.92;;;3.80;65.70;;;2.11;67.40;97913.03;4988249;28;20439;-64
2022/03/19 04:29:25;;;;;;;52.90;32.08;;;3.80;66.20;;;2.08;67.79;97908.88;4976076;28;20027;-65
2022/03/19 04:31:51;;;;;;;45.97;28.75;;;3.90;66.70;;;2.11;67.79;97918.25;4939765;28;20035;-64
2022/03/19 04:34:17;;;;;;;45.08;27.65;;;3.90;66.40;;;2.10;67.77;97898.41;4969928;28;20046;-63
2022/03/19 04:36:43;;;;;;;44.25;26.40;;;3.90;66.50;;;2.08;67.88;97902.84;4975393;28;20050;-68
2022/03/19 04:39:08;;;;;;;44.67;27.15;;;3.90;65.50;;;2.08;67.80;97900.25;4958272;28;20441;-66
2022/03/19 04:41:35;;;;;;;43.75;27.55;;;3.80;65.30;;;2.08;67.21;97895.06;4970071;28;20126;-68
2022/03/19 04:44:01;;;;;;;41.75;26.73;;;3.80;65.00;;;2.06;67.60;97889.13;4981345;28;20027;-66
2022/03/19 04:46:27;;;;;;;39.30;25.73;;;3.80;64.80;;;2.06;67.44;97895.16;4970810;28;20054;-66
2022/03/19 04:48:53;;;;;;;40.80;26.10;;;3.80;64.60;;;2.07;67.07;97896.00;4952063;28;20675;-66
2022/03/19 04:51:20;;;;;;;40.60;24.52;;;3.90;64.60;;;2.06;67.24;97889.13;4968522;28;20459;-66
2022/03/19 04:53:50;;;;;;;44.20;25.63;;;3.80;64.00;;;2.06;67.44;97894.31;4962385;28;20473;-65
2022/03/19 04:56:23;;;;;;;41.43;26.17;;;3.80;64.30;;;2.07;66.81;97896.00;4969457;28;20098;-65
2022/03/19 04:58:50;;;;;;;39.75;25.08;;;3.80;63.90;;;2.07;66.22;97901.19;4951361;28;20595;-66
2022/03/19 05:01:16;;;;;;;41.05;24.95;;;3.90;63.80;;;2.07;66.43;97893.41;4965200;28;20039;-66
2022/03/19 05:03:41;;;;;;;43.30;24.88;;;3.90;63.70;;;2.08;66.52;97892.47;4943186;28;20387;-65
2022/03/19 05:06:07;;;;;;;40.92;25.83;;;3.90;63.40;;;2.10;66.62;97890.63;4970528;28;20035;-66
2022/03/19 05:08:33;;;;;;;39.38;25.00;;;3.90;63.40;;;2.11;66.05;97887.91;4970682;28;20089;-66
2022/03/19 05:11:14;;;;;;;37.75;23.88;;;3.90;63.40;;;2.12;66.61;97888.75;4980285;28;20027;-65
2022/03/19 05:13:44;;;;;;;40.53;24.73;;;3.90;63.00;;;2.11;66.36;97889.69;4972379;28;20027;-65
2022/03/19 05:16:14;;;;;;;40.50;24.97;;;3.90;63.10;;;2.10;65.94;97881.06;4954909;28;20035;-65
2022/03/19 05:18:39;;;;;;;41.95;24.35;;;3.90;62.90;;;2.10;66.16;97880.22;4969509;28;20746;-66
2022/03/19 05:21:05;;;;;;;39.10;24.48;;;3.90;62.80;;;2.07;65.84;97880.41;4971418;28;20115;-65
2022/03/19 05:23:31;;;;;;;41.22;24.67;;;3.80;63.10;;;2.06;65.85;97889.13;4970815;28;20138;-66
2022/03/19 05:25:58;;;;;;;37.15;23.70;;;3.80;63.30;;;2.04;66.12;97885.78;4951041;28;20066;-65
2022/03/19 05:28:24;;;;;;;38.33;23.80;;;3.80;62.90;;;2.02;65.29;97890.22;4968635;28;20035;-67
2022/03/19 05:30:51;;;;;;;37.10;24.25;;;3.70;63.20;;;1.98;65.44;97881.78;4967945;28;20027;-66
2022/03/19 05:33:17;;;;;;;39.60;24.08;;;3.70;63.50;;;1.96;66.07;97888.84;4984494;28;20042;-66
2022/03/19 05:35:44;;;;;;;39.35;24.00;;;3.70;63.40;;;1.94;65.64;97885.50;4966519;28;20439;-65
2022/03/19 05:38:10;;;;;;;35.38;22.75;;;3.70;63.30;;;1.94;66.23;97882.06;4967849;28;20038;-65
2022/03/19 05:40:36;;;;;;;36.38;23.33;;;3.80;63.10;;;1.94;65.98;97882.06;4971386;28;20049;-65
2022/03/19 05:43:02;;;;;;;36.00;24.02;;;3.70;62.70;;;1.93;65.11;97878.63;4971454;28;20027;-65
2022/03/19 05:45:27;;;;;;;39.90;24.15;;;3.80;62.80;;;1.93;65.80;97877.81;4986855;28;20035;-65
2022/03/19 05:47:53;;;;;;;37.33;23.05;;;3.80;62.60;;;1.93;65.86;97883.81;4971320;28;20055;-68
2022/03/19 05:50:19;;;;;;;40.67;23.55;;;3.80;62.60;;;1.94;65.37;97882.06;4972278;28;20056;-67
2022/03/19 05:52:45;;;;;;;36.33;22.60;;;3.80;62.70;;;1.94;65.78;97879.47;4971346;28;20042;-66
2022/03/19 05:55:11;;;;;;;42.42;23.02;;;3.80;62.30;;;1.94;65.73;97879.47;4936154;28;20123;-66
2022/03/19 05:57:37;;;;;;;39.15;23.90;;;3.80;62.50;;;1.98;65.46;97880.94;4955322;28;20455;-66
2022/03/19 06:00:04;;;;;;;35.95;23.02;;;3.90;62.70;;;1.98;65.71;97883.56;4971196;28;20080;-65
2022/03/19 06:02:30;;;;;;;38.15;23.27;;;3.90;62.70;;;2.02;65.92;97882.44;4971141;28;20162;-66
2022/03/19 06:04:56;;;;;;;38.97;23.17;;;4.00;62.60;;;2.04;65.91;97876.25;4968633;28;20031;-65
2022/03/19 06:07:21;;;;;;;39.10;23.00;;;4.10;62.60;;;2.06;65.80;97877.00;4971141;28;20518;-65
2022/03/19 06:09:47;;;;;;;35.47;22.70;;;4.10;62.90;;;2.09;65.77;97878.56;4987373;28;20093;-65
2022/03/19 06:12:13;;;;;;;45.40;28.27;;;4.20;62.90;;;2.18;66.29;97874.56;4987439;28;20098;-65
2022/03/19 06:14:39;;;;;;;38.03;23.77;;;4.30;62.60;;;2.24;65.82;97872.41;4982521;28;20050;-67
2022/03/19 06:17:04;;;;;;;38.65;22.75;;;4.40;61.80;;;2.29;65.46;97873.00;4964538;28;20032;-65
2022/03/19 06:19:30;;;;;;;36.08;23.02;;;4.50;61.30;;;2.34;65.82;97873.53;4967904;28;20048;-66
2022/03/19 06:21:56;;;;;;;38.38;22.50;;;4.50;61.00;;;2.40;65.73;97873.16;4952760;28;20038;-66
2022/03/19 06:24:23;;;;;;;34.60;21.50;;;4.60;60.80;;;2.49;65.98;97868.31;4969511;28;20043;-66
2022/03/19 06:26:50;;;;;;;33.00;21.13;;;4.80;60.30;;;2.56;64.90;97867.00;4980421;28;20035;-66
2022/03/19 06:29:16;;;;;;;37.78;23.00;;;4.90;59.30;;;2.64;65.61;97865.59;4969015;28;20026;-66
2022/03/19 06:31:42;;;;;;;32.58;21.65;;;5.10;59.20;;;2.73;65.23;97861.59;4970685;28;20061;-66
2022/03/19 06:34:08;;;;;;;37.25;21.60;;;5.10;58.90;;;2.83;65.02;97865.28;4986608;28;20082;-65
2022/03/19 06:39:18;;;;;;;38.38;22.10;;;5.50;58.60;;;3.05;65.26;97860.38;4968721;28;20042;-65
2022/03/19 06:41:43;;;;;;;36.20;22.85;;;5.70;57.90;;;3.19;64.92;97856.03;4951491;28;20032;-66
2022/03/19 06:44:09;;;;;;;33.03;22.23;;;5.90;57.70;;;3.30;64.96;97859.59;4969196;28;20043;-65
2022/03/19 06:46:35;;;;;;;34.80;23.23;;;6.00;57.10;;;3.41;64.34;97856.31;4966771;28;20050;-66
2022/03/19 06:49:01;;;;;;;33.95;21.98;;;6.10;56.70;;;3.55;64.39;97853.59;4951023;28;20027;-66
2022/03/19 06:51:26;;;;;;;33.78;21.65;;;6.30;56.50;;;3.71;64.52;97852.59;4962218;28;20027;-65
2022/03/19 06:53:52;;;;;;;34.10;21.13;;;6.50;55.90;;;3.86;64.42;97846.34;4962865;28;20090;-65
2022/03/19 06:56:18;;;;;;;32.03;21.33;;;6.70;54.90;;;4.01;64.08;97840.06;4962083;28;20031;-66
2022/03/19 06:58:44;;;;;;;32.20;21.15;;;6.90;55.30;;;4.17;63.84;97840.69;4985293;28;20046;-67
2022/03/19 07:01:15;;;;;;;35.25;21.77;;;7.10;53.90;;;4.32;63.66;97837.97;4967833;28;20778;-66
2022/03/19 07:03:43;;;;;;;34.47;21.80;;;7.20;53.80;;;4.48;63.26;97843.75;4967347;28;20123;-66
2022/03/19 07:06:08;;;;;;;30.98;21.20;;;7.50;53.50;;;4.64;63.26;97831.31;4977904;28;20039;-65
2022/03/19 07:08:34;;;;;;;32.28;21.42;;;7.80;52.70;;;4.81;62.10;97830.94;4967108;28;20458;-69
2022/03/19 07:11:00;;;;;;;34.45;22.10;;;8.00;51.50;;;5.00;62.53;97829.59;4969613;28;20026;-69
2022/03/19 07:13:25;;;;;;;34.45;21.13;;;8.20;51.70;;;5.18;62.17;97828.22;4974151;28;20500;-69
2022/03/19 07:15:51;;;;;;;28.42;20.77;;;8.60;50.00;;;5.38;62.12;97830.19;4951495;28;20082;-70
2022/03/19 07:18:17;;;;;;;30.60;21.20;;;8.90;50.00;;;5.60;60.96;97826.00;4948686;28;20039;-66
2022/03/19 07:20:43;;;;;;;29.65;21.30;;;9.10;48.40;;;5.80;61.08;97822.72;4951536;28;20053;-66
2022/03/19 07:23:08;;;;;;;30.48;20.73;;;9.40;47.80;;;6.04;60.07;97826.06;4966341;28;20022;-70
2022/03/19 07:25:40;;;;;;;25.80;20.13;;;9.70;47.10;;;6.24;57.50;97818.47;4967947;28;20038;-71
2022/03/19 07:28:09;;;;;;;30.80;21.55;;;9.80;45.40;;;6.38;57.61;97820.84;4968049;28;20035;-72
2022/03/19 07:30:35;;;;;;;28.63;21.33;;;9.90;43.70;;;6.54;57.42;97808.22;4971996;28;20032;-69
2022/03/19 07:33:01;;;;;;;27.77;20.73;;;10.10;43.80;;;6.73;56.30;97808.41;4977263;28;20499;-68
2022/03/19 07:35:27;;;;;;;28.48;20.63;;;10.40;43.80;;;6.96;56.67;97814.41;4968485;28;20069;-69
2022/03/19 07:37:53;;;;;;;27.48;20.55;;;10.80;42.30;;;7.16;54.65;97812.78;4964192;28;20035;-67
2022/03/19 07:43:05;;;;;;;31.80;21.92;;;11.30;41.40;;;7.59;54.15;97814.47;4965029;28;20042;-70
2022/03/19 07:45:31;;;;;;;26.30;20.38;;;11.70;41.00;;;7.78;53.74;97808.53;4943946;28;20031;-67
2022/03/19 07:47:57;;;;;;;26.40;20.58;;;11.90;40.20;;;7.96;53.50;97799.94;4967517;28;20039;-64
2022/03/19 07:50:23;;;;;;;26.25;20.30;;;12.10;40.10;;;8.16;52.53;97805.28;4981284;28;20646;-66
2022/03/19 07:52:49;;;;;;;24.42;18.95;;;12.50;38.70;;;8.32;52.03;97792.47;4967771;28;20041;-64
2022/03/19 07:55:15;;;;;;;25.10;20.13;;;12.70;37.50;;;8.53;51.32;97785.41;4984148;28;20041;-64
2022/03/19 07:57:40;;;;;;;27.70;20.02;;;13.00;37.20;;;8.75;50.52;97789.59;4965590;28;20110;-64
2022/03/19 08:00:07;;;;;;;25.17;18.63;;;13.30;36.60;;;8.94;49.86;97778.28;4980761;28;20035;-62
2022/03/19 08:02:32;;;;;;;26.98;18.90;;;13.40;35.30;;;9.08;49.75;97770.00;4966011;28;20030;-64
2022/03/19 08:05:03;;;;;;;25.15;18.90;;;13.60;35.00;;;9.27;49.13;97771.75;4945999;28;20042;-63
2022/03/19 08:07:29;;;;;;;25.02;18.60;;;13.80;34.00;;;9.48;48.31;97768.97;4961782;28;20138;-62
2022/03/19 08:09:55;;;;;;;23.77;18.05;;;14.20;33.70;;;9.69;48.21;97758.28;4979454;28;20499;-63
2022/03/19 08:12:21;;;;;;;25.13;18.75;;;14.50;33.80;;;9.94;47.54;97756.81;4966132;28;20047;-64
2022/03/19 08:14:46;;;;;;;24.80;17.70;;;14.80;33.00;;;10.13;46.93;97762.00;4944163;28;20039;-63
2022/03/19 08:17:12;;;;;;;21.67;16.98;;;15.00;31.50;;;10.31;44.57;97760.28;4960764;28;20058;-63
2022/03/19 08:19:38;;;;;;;23.15;16.58;;;15.10;30.80;;;10.53;44.41;97750.34;4984261;28;20118;-63
2022/03/19 08:22:04;;;;;;;23.20;17.17;;;15.30;29.20;;;10.69;43.76;97753.16;4967987;28;20047;-63
2022/03/19 08:24:29;;;;;;;22.08;16.65;;;15.40;29.80;;;10.95;42.77;97748.78;4963504;28;20043;-64
2022/03/19 08:26:55;;;;;;;22.33;16.30;;;15.90;29.00;;;11.15;42.61;97746.00;4983193;28;20039;-63
2022/03/19 08:29:24;;;;;;;22.35;16.38;;;16.00;28.80;;;11.26;41.54;97741.31;4965870;28;20043;-63
2022/03/19 08:31:51;;;;;;;25.75;16.95;;;16.00;28.20;;;11.42;41.64;97740.63;4975778;28;20406;-63
2022/03/19 08:34:17;;;;;;;22.88;15.68;;;16.10;28.90;;;11.55;40.13;97729.69;4965789;28;20070;-63
2022/03/19 08:36:42;;;;;;;22.95;16.48;;;16.10;27.80;;;11.65;40.09;97731.22;4975596;28;20039;-63
2022/03/19 08:41:52;;;;;;;21.85;17.05;;;16.80;27.80;;;12.13;39.56;97729.84;4950377;28;20396;-63
2022/03/19 08:44:18;;;;;;;22.38;16.05;;;16.90;27.20;;;12.25;39.56;97723.31;4965752;28;20510;-62
2022/03/19 08:46:44;;;;;;;21.02;15.98;;;16.90;26.50;;;12.40;38.36;97730.59;4964787;28;20126;-63
2022/03/19 08:49:10;;;;;;;21.00;16.27;;;17.10;26.30;;;12.55;37.93;97723.72;4969246;28;20066;-63
2022/03/19 08:51:42;;;;;;;22.70;15.30;;;17.10;26.40;;;12.72;37.44;97730.69;4969007;28;20035;-63
2022/03/19 08:54:09;;;;;;;21.05;15.65;;;17.50;25.70;;;12.92;36.58;97725.09;4951047;28;20046;-62
2022/03/19 08:56:34;;;;;;;20.13;15.88;;;17.50;24.90;;;13.07;36.75;97724.28;4968425;28;20042;-63
2022/03/19 08:59:00;;;;;;;22.85;17.25;;;17.80;24.90;;;13.33;36.31;97718.84;4966973;28;20109;-64
2022/03/19 09:01:26;;;;;;;22.80;15.80;;;18.20;25.20;;;13.49;35.79;97721.47;4971405;28;20038;-63
2022/03/19 09:03:52;;;;;;;27.13;17.42;;;18.10;24.80;;;13.67;36.63;97709.88;4970293;28;20039;-63
2022/03/19 09:06:18;;;;;;;23.98;16.63;;;18.50;24.60;;;13.84;35.50;97708.88;4970346;28;20109;-63
2022/03/19 09:08:45;;;;;;;22.05;16.13;;;18.50;24.10;;;14.10;34.97;97700.66;4954861;28;20042;-63
2022/03/19 09:11:11;;;;;;;21.20;17.00;;;18.90;23.90;;;14.27;34.22;97696.13;4949338;28;20031;-64
2022/03/19 09:13:37;;;;;;;20.80;15.60;;;18.90;23.50;;;14.50;35.46;97701.50;4972731;28;20031;-64
2022/03/19 09:16:04;;;;;;;20.23;15.27;;;19.40;24.30;;;14.70;33.65;97697.38;4970716;28;20541;-64
2022/03/19 09:18:30;;;;;;;22.10;15.70;;;19.30;23.10;;;14.79;33.52;97687.56;4960338;28;20035;-67
2022/03/19 09:20:57;;;;;;;18.27;15.32;;;19.30;23.50;;;15.00;33.28;97680.63;4969769;28;20700;-67
2022/03/19 09:23:22;;;;;;;20.48;14.88;;;19.60;23.40;;;15.23;32.99;97677.13;4968476;28;20035;-67
2022/03/19 09:25:48;;;;;;;22.50;15.40;;;19.90;23.50;;;15.40;32.73;97677.78;4953560;28;20027;-67
2022/03/19 09:28:14;;;;;;;19.90;15.50;;;20.20;22.70;;;15.52;34.11;97678.97;4970011;28;20039;-67
2022/03/19 09:30:39;;;;;;;18.80;13.82;;;20.20;23.00;;;15.71;33.25;97673.19;4954617;28;20055;-67
2022/03/19 09:33:06;;;;;;;19.00;13.38;;;20.30;22.40;;;15.84;32.68;97673.38;4971160;28;20031;-66
2022/03/19 09:35:32;;;;;;;17.40;13.07;;;20.30;21.30;;;15.80;30.91;97663.28;4970675;28;20043;-67
2022/03/19 09:37:58;;;;;;;20.33;13.13;;;20.00;21.10;;;15.83;30.66;97663.75;4985910;28;20035;-67
2022/03/19 09:40:24;;;;;;;17.08;13.68;;;20.50;21.30;;;16.00;31.64;97652.94;4952493;28;20034;-68
2022/03/19 09:42:51;;;;;;;16.70;12.85;;;20.60;21.50;;;16.26;29.92;97652.44;4966358;28;20061;-68
2022/03/19 09:45:22;;;;;;;18.67;13.23;;;21.20;20.20;;;16.59;29.04;97648.31;4968536;28;20043;-68
2022/03/19 09:47:48;;;;;;;15.43;13.02;;;21.90;20.20;;;16.80;29.64;97650.19;4967299;28;20094;-68
2022/03/19 09:50:13;;;;;;;18.70;13.32;;;22.20;18.70;;;16.91;29.29;97646.19;4964988;28;20521;-67
2022/03/19 09:52:41;;;;;;;18.10;12.98;;;22.40;19.00;;;17.05;28.83;97643.47;4981718;28;20032;-67
2022/03/19 09:55:08;;;;;;;17.73;13.50;;;22.90;17.90;;;17.23;29.15;97639.53;4980324;28;20069;-67
2022/03/19 09:57:34;;;;;;;16.98;12.73;;;23.40;18.60;;;17.30;29.11;97637.72;4966334;28;20035;-67
2022/03/19 10:00:00;;;;;;;17.50;13.23;;;23.30;18.40;;;17.51;28.75;97629.69;4971089;28;20031;-67
2022/03/19 10:02:26;;;;;;;17.92;14.23;;;23.80;17.30;;;17.78;28.56;97614.72;4976806;28;20046;-67
2022/03/19 10:04:57;;;;;;;18.48;13.45;;;24.20;16.40;;;18.00;25.98;97621.56;4960290;28;20117;-67
2022/03/19 10:10:09;;;;;;;20.92;13.52;;;24.90;16.40;;;18.70;29.17;97614.22;4967687;28;20074;-68
2022/03/19 10:12:36;;;;;;;19.27;13.38;;;26.00;15.90;;;19.11;29.10;97614.03;4953143;28;20049;-68
2022/03/19 10:15:09;;;;;;;19.73;14.10;;;26.40;15.60;;;19.67;27.68;97610.06;4962967;28;20029;-68
2022/03/19 10:17:36;;;;;;;17.23;14.05;;;27.50;15.00;;;20.16;28.50;97596.97;4967954;28;20181;-68
2022/03/19 10:20:10;;;;;;;15.43;12.63;;;27.90;14.60;;;20.59;25.43;97600.84;4969881;28;20030;-67
2022/03/19 10:22:45;;;;;;;21.20;14.43;;;27.60;14.60;;;20.90;24.95;97603.53;4937623;28;20039;-67
2022/03/19 10:25:14;;;;;;;17.38;13.75;;;27.80;14.40;;;20.83;25.67;97597.41;4978324;28;20035;-67
2022/03/19 10:27:42;;;;;;;18.52;13.77;;;26.10;15.90;;;20.77;26.49;97598.25;4958909;28;20031;-67